createdAt,value
2023-01-29T00:01:23.876Z,34.80
2023-01-29T00:03:51.991Z,35.73
2023-01-29T00:06:19.367Z,36.30
2023-01-29T00:08:47.071Z,33.83
2023-01-29T00:11:14.147Z,34.47
2023-01-29T00:13:40.858Z,39.40
2023-01-29T00:16:07.732Z,35.10
2023-01-29T00:18:39.015Z,34.93
2023-01-29T00:21:13.565Z,34.77
2023-01-29T00:23:40.549Z,37.27
2023-01-29T00:26:07.541Z,35.00
2023-01-29T00:28:35.122Z,37.27
2023-01-29T00:31:14.393Z,34.17
2023-01-29T00:33:41.315Z,32.23
2023-01-29T00:36:11.092Z,30.23
2023-01-29T00:38:39.106Z,31.67
2023-01-29T00:41:26.067Z,32.63
2023-01-29T00:44:11.871Z,30.47
2023-01-29T00:46:38.999Z,30.27
2023-01-29T00:49:06.748Z,29.90
2023-01-29T00:51:34.002Z,32.70
2023-01-29T00:54:01.222Z,35.77
2023-01-29T00:56:29.557Z,34.23
2023-01-29T00:58:56.849Z,30.93
2023-01-29T01:01:43.380Z,32.77
2023-01-29T01:04:12.307Z,31.20
2023-01-29T01:06:40.501Z,31.57
2023-01-29T01:09:28.598Z,34.47
2023-01-29T01:11:55.984Z,30.40
2023-01-29T01:14:22.784Z,46.13
2023-01-29T01:16:50.010Z,38.50
2023-01-29T01:19:17.256Z,33.70
2023-01-29T01:21:47.092Z,34.50
2023-01-29T01:24:14.893Z,30.70
2023-01-29T01:26:42.033Z,34.90
2023-01-29T01:29:09.474Z,41.67
2023-01-29T01:31:36.269Z,39.97
2023-01-29T01:34:03.044Z,39.37
2023-01-29T01:36:32.378Z,42.37
2023-01-29T01:38:59.262Z,41.77
2023-01-29T01:41:26.280Z,38.10
2023-01-29T01:44:01.811Z,45.50
2023-01-29T01:46:30.005Z,40.47
2023-01-29T01:49:13.591Z,42.60
2023-01-29T01:51:46.139Z,38.90
2023-01-29T01:54:22.460Z,46.57
2023-01-29T01:56:55.844Z,42.57
2023-01-29T01:59:23.963Z,46.13
2023-01-29T02:01:54.401Z,37.30
2023-01-29T02:04:43.122Z,45.73
2023-01-29T02:07:31.923Z,39.17
2023-01-29T02:10:12.412Z,38.43
2023-01-29T02:12:39.422Z,36.80
2023-01-29T02:15:07.376Z,41.73
2023-01-29T02:17:34.391Z,36.10
2023-01-29T02:20:17.637Z,35.67
2023-01-29T02:23:03.847Z,36.00
2023-01-29T02:25:49.066Z,34.27
2023-01-29T02:28:34.619Z,41.47
2023-01-29T02:31:26.262Z,44.33
2023-01-29T02:34:17.816Z,39.27
2023-01-29T02:36:52.586Z,37.47
2023-01-29T02:39:34.450Z,40.67
2023-01-29T02:42:07.626Z,39.10
2023-01-29T02:44:39.691Z,39.10
2023-01-29T02:47:18.450Z,35.73
2023-01-29T02:49:56.722Z,40.90
2023-01-29T02:52:43.280Z,36.33
2023-01-29T02:55:15.971Z,41.37
2023-01-29T02:57:47.746Z,37.87
2023-01-29T03:00:22.815Z,37.37
2023-01-29T03:03:00.745Z,37.53
2023-01-29T03:06:02.276Z,36.90
2023-01-29T03:08:42.860Z,34.43
2023-01-29T03:11:15.822Z,39.00
2023-01-29T03:13:58.319Z,38.27
2023-01-29T03:16:53.026Z,37.17
2023-01-29T03:19:32.022Z,40.80
2023-01-29T03:22:04.835Z,39.30
2023-01-29T03:24:56.116Z,34.00
2023-01-29T03:27:49.398Z,41.53
2023-01-29T03:30:37.190Z,33.20
2023-01-29T03:33:26.959Z,35.87
2023-01-29T03:36:00.967Z,39.37
2023-01-29T03:38:30.023Z,37.83
2023-01-29T03:41:02.576Z,40.50
2023-01-29T03:43:38.165Z,45.87
2023-01-29T03:46:31.488Z,42.53
2023-01-29T03:49:11.990Z,43.00
2023-01-29T03:52:01.239Z,35.00
2023-01-29T03:54:52.866Z,34.60
2023-01-29T03:57:36.747Z,40.30
2023-01-29T04:00:38.483Z,40.60
2023-01-29T04:03:25.226Z,42.40
2023-01-29T04:06:09.931Z,42.47
2023-01-29T04:08:56.246Z,37.27
2023-01-29T04:11:24.828Z,38.40
2023-01-29T04:13:52.480Z,36.53
2023-01-29T04:16:31.574Z,37.40
2023-01-29T04:19:17.290Z,35.17
2023-01-29T04:21:46.658Z,37.53
2023-01-29T04:24:14.594Z,37.93
2023-01-29T04:27:00.304Z,33.37
2023-01-29T04:29:43.750Z,40.00
2023-01-29T04:32:20.848Z,38.60
2023-01-29T04:35:15.582Z,35.73
2023-01-29T04:38:21.711Z,41.40
2023-01-29T04:41:03.302Z,34.03
2023-01-29T04:43:43.910Z,36.60
2023-01-29T04:46:13.948Z,32.13
2023-01-29T04:49:17.616Z,35.90
2023-01-29T04:51:54.821Z,34.93
2023-01-29T04:54:52.300Z,35.73
2023-01-29T04:57:34.098Z,35.77
2023-01-29T05:00:24.062Z,36.77
2023-01-29T05:02:51.394Z,37.50
2023-01-29T05:05:20.220Z,40.23
2023-01-29T05:07:48.735Z,37.23
2023-01-29T05:10:19.683Z,41.93
2023-01-29T05:12:53.162Z,40.43
2023-01-29T05:15:25.649Z,36.63
2023-01-29T05:17:54.575Z,36.43
2023-01-29T05:20:21.516Z,38.20
2023-01-29T05:22:49.271Z,37.40
2023-01-29T05:25:21.170Z,37.43
2023-01-29T05:28:11.960Z,39.83
2023-01-29T05:30:40.044Z,35.17
2023-01-29T05:33:21.920Z,39.43
2023-01-29T05:35:49.477Z,37.13
2023-01-29T05:38:17.451Z,41.43
2023-01-29T05:40:44.466Z,38.20
2023-01-29T05:43:22.653Z,40.53
2023-01-29T05:46:00.400Z,34.50
2023-01-29T05:48:29.139Z,38.20
2023-01-29T05:51:03.365Z,39.93
2023-01-29T05:53:31.230Z,40.63
2023-01-29T05:56:01.812Z,40.60
2023-01-29T05:58:31.359Z,41.70
2023-01-29T06:00:58.571Z,38.00
2023-01-29T06:03:25.307Z,36.93
2023-01-29T06:05:52.044Z,39.83
2023-01-29T06:08:18.797Z,37.20
2023-01-29T06:10:45.478Z,45.20
2023-01-29T06:13:12.429Z,43.87
2023-01-29T06:15:40.824Z,36.93
2023-01-29T06:18:07.564Z,37.97
2023-01-29T06:20:34.297Z,40.23
2023-01-29T06:23:01.444Z,37.63
2023-01-29T06:25:28.770Z,45.03
2023-01-29T06:27:57.125Z,40.80
2023-01-29T06:30:25.908Z,41.30
2023-01-29T06:32:59.006Z,40.53
2023-01-29T06:35:26.152Z,40.43
2023-01-29T06:37:53.021Z,35.20
2023-01-29T06:40:19.851Z,36.93
2023-01-29T06:42:46.846Z,36.17
2023-01-29T06:45:14.249Z,39.47
2023-01-29T06:47:41.068Z,40.07
2023-01-29T06:50:08.166Z,39.93
2023-01-29T06:52:34.851Z,39.70
2023-01-29T06:55:01.916Z,42.63
2023-01-29T06:57:30.185Z,35.13
2023-01-29T06:59:56.950Z,40.33
2023-01-29T07:02:23.840Z,40.93
2023-01-29T07:04:50.680Z,41.47
2023-01-29T07:07:18.551Z,42.67
2023-01-29T07:09:45.288Z,39.67
2023-01-29T07:12:12.080Z,36.60
2023-01-29T07:14:38.746Z,35.63
2023-01-29T07:17:05.591Z,35.70
2023-01-29T07:19:32.327Z,36.93
2023-01-29T07:22:02.460Z,40.80
2023-01-29T07:24:29.644Z,40.00
2023-01-29T07:26:56.944Z,39.83
2023-01-29T07:29:23.771Z,41.40
2023-01-29T07:31:50.650Z,38.77
2023-01-29T07:34:17.467Z,43.90
2023-01-29T07:36:44.608Z,41.40
2023-01-29T07:39:11.329Z,38.47
2023-01-29T07:41:38.103Z,37.97
2023-01-29T07:44:15.185Z,37.53
2023-01-29T07:46:41.906Z,35.70
2023-01-29T07:49:08.683Z,39.83
2023-01-29T07:51:35.434Z,38.90
2023-01-29T07:54:02.475Z,40.30
2023-01-29T07:56:29.512Z,44.53
2023-01-29T07:58:56.522Z,39.10
2023-01-29T08:01:23.386Z,40.87
2023-01-29T08:03:51.390Z,40.37
2023-01-29T08:06:19.341Z,42.30
2023-01-29T08:08:46.092Z,40.93
2023-01-29T08:11:12.900Z,37.90
2023-01-29T08:13:39.770Z,38.90
2023-01-29T08:16:06.976Z,38.63
2023-01-29T08:18:34.093Z,36.80
2023-01-29T08:21:01.554Z,39.03
2023-01-29T08:23:28.517Z,41.23
2023-01-29T08:25:55.479Z,46.83
2023-01-29T08:28:22.331Z,47.80
2023-01-29T08:30:49.127Z,39.03
2023-01-29T08:33:17.547Z,33.43
2023-01-29T08:35:52.008Z,29.50
2023-01-29T08:38:19.223Z,23.13
2023-01-29T08:40:46.082Z,25.13
2023-01-29T08:43:13.973Z,24.33
2023-01-29T08:45:42.787Z,25.87
2023-01-29T08:48:10.287Z,25.73
2023-01-29T08:50:37.768Z,18.37
2023-01-29T08:53:08.250Z,22.43
2023-01-29T08:55:41.900Z,22.13
2023-01-29T08:58:10.846Z,25.27
2023-01-29T09:00:38.545Z,20.73
2023-01-29T09:03:07.733Z,22.73
2023-01-29T09:05:35.308Z,24.30
2023-01-29T09:08:03.068Z,24.77
2023-01-29T09:10:30.276Z,27.80
2023-01-29T09:12:56.955Z,24.93
2023-01-29T09:15:24.178Z,24.67
2023-01-29T09:17:51.310Z,27.77
2023-01-29T09:20:19.517Z,25.73
2023-01-29T09:22:47.200Z,22.03
2023-01-29T09:25:14.662Z,23.40
2023-01-29T09:27:42.044Z,17.73
2023-01-29T09:30:09.665Z,19.13
2023-01-29T09:32:53.908Z,19.43
2023-01-29T09:35:24.729Z,20.53
2023-01-29T09:37:52.066Z,20.83
2023-01-29T09:40:29.383Z,23.23
2023-01-29T09:43:04.638Z,24.73
2023-01-29T09:45:31.690Z,23.87
2023-01-29T09:48:05.805Z,19.97
2023-01-29T09:50:41.865Z,21.57
2023-01-29T09:53:20.036Z,21.23
2023-01-29T09:55:53.005Z,20.70
2023-01-29T09:58:31.514Z,18.10
2023-01-29T10:01:17.025Z,16.17
2023-01-29T10:03:59.070Z,15.60
2023-01-29T10:06:50.527Z,16.37
2023-01-29T10:09:31.583Z,13.43
2023-01-29T10:12:07.589Z,11.40
2023-01-29T10:15:03.896Z,12.67
2023-01-29T10:17:36.722Z,10.27
2023-01-29T10:20:18.880Z,11.73
2023-01-29T10:22:51.424Z,12.40
2023-01-29T10:25:21.536Z,14.03
2023-01-29T10:27:53.286Z,11.60
2023-01-29T10:30:29.903Z,13.53
2023-01-29T10:33:01.586Z,16.70
2023-01-29T10:35:35.655Z,10.93
2023-01-29T10:38:27.870Z,16.10
2023-01-29T10:41:02.598Z,12.63
2023-01-29T10:43:47.219Z,11.97
2023-01-29T10:46:36.175Z,13.87
2023-01-29T10:49:48.484Z,11.40
2023-01-29T10:52:40.647Z,12.67
2023-01-29T10:55:19.552Z,12.47
2023-01-29T10:58:07.742Z,11.37
2023-01-29T11:00:39.521Z,10.27
2023-01-29T11:03:33.650Z,11.17
2023-01-29T11:06:03.527Z,9.20
2023-01-29T11:08:40.110Z,11.60
2023-01-29T11:11:12.966Z,11.00
2023-01-29T11:13:54.909Z,11.80
2023-01-29T11:16:21.616Z,10.80
2023-01-29T11:18:49.910Z,13.33
2023-01-29T11:21:16.957Z,14.77
2023-01-29T11:23:43.812Z,13.20
2023-01-29T11:26:19.455Z,13.97
2023-01-29T11:28:48.751Z,14.43
2023-01-29T11:31:27.477Z,12.73
2023-01-29T11:34:04.119Z,11.10
2023-01-29T11:36:39.246Z,11.97
2023-01-29T11:39:08.916Z,9.70
2023-01-29T11:41:54.251Z,12.73
2023-01-29T11:44:33.079Z,13.93
2023-01-29T11:47:18.747Z,11.70
2023-01-29T11:49:51.039Z,9.73
2023-01-29T11:52:21.258Z,10.93
2023-01-29T11:55:03.721Z,9.47
2023-01-29T11:57:36.110Z,11.97
2023-01-29T12:00:07.407Z,12.80
2023-01-29T12:02:42.314Z,10.23
2023-01-29T12:05:21.166Z,10.93
2023-01-29T12:07:51.530Z,10.23
2023-01-29T12:10:42.483Z,10.20
2023-01-29T12:13:20.140Z,12.73
2023-01-29T12:15:48.532Z,11.43
2023-01-29T12:18:38.031Z,11.80
2023-01-29T12:21:34.293Z,15.97
2023-01-29T12:24:16.312Z,12.73
2023-01-29T12:27:01.120Z,12.20
2023-01-29T12:29:41.123Z,13.63
2023-01-29T12:32:36.070Z,12.93
2023-01-29T12:35:28.530Z,11.30
2023-01-29T12:38:08.158Z,11.67
2023-01-29T12:40:42.284Z,11.97
2023-01-29T12:43:17.187Z,12.40
2023-01-29T12:45:48.150Z,10.70
2023-01-29T12:48:23.515Z,16.60
2023-01-29T12:50:53.375Z,12.37
2023-01-29T12:53:32.673Z,12.37
2023-01-29T12:56:25.520Z,10.70
2023-01-29T12:58:55.970Z,13.77
2023-01-29T13:01:36.823Z,11.57
2023-01-29T13:04:32.623Z,13.40
2023-01-29T13:07:12.892Z,12.10
2023-01-29T13:09:45.289Z,11.93
2023-01-29T13:12:18.132Z,10.37
2023-01-29T13:15:03.748Z,15.07
2023-01-29T13:17:43.025Z,11.50
2023-01-29T13:20:18.956Z,11.03
2023-01-29T13:22:48.055Z,13.37
2023-01-29T13:25:17.752Z,10.57
2023-01-29T13:27:47.749Z,11.53
2023-01-29T13:30:31.881Z,11.50
2023-01-29T13:33:11.126Z,12.53
2023-01-29T13:35:45.188Z,14.33
2023-01-29T13:38:28.594Z,13.37
2023-01-29T13:41:05.152Z,13.43
2023-01-29T13:43:41.610Z,12.60
2023-01-29T13:46:13.397Z,14.00
2023-01-29T13:48:47.151Z,11.10
2023-01-29T13:51:20.207Z,16.37
2023-01-29T13:53:58.582Z,13.80
2023-01-29T13:56:44.694Z,12.30
2023-01-29T13:59:59.511Z,11.90
2023-01-29T14:02:28.638Z,10.10
2023-01-29T14:05:32.383Z,12.27
2023-01-29T14:08:09.379Z,15.70
2023-01-29T14:10:37.693Z,12.50
2023-01-29T14:13:04.358Z,11.87
2023-01-29T14:15:36.356Z,15.87
2023-01-29T14:18:06.228Z,13.63
2023-01-29T14:20:45.489Z,13.07
2023-01-29T14:23:47.381Z,15.23
2023-01-29T14:26:20.374Z,12.87
2023-01-29T14:28:59.119Z,16.27
2023-01-29T14:31:49.994Z,15.13
2023-01-29T14:34:23.127Z,14.93
2023-01-29T14:36:55.676Z,13.80
2023-01-29T14:39:30.052Z,13.40
2023-01-29T14:41:57.986Z,15.87
2023-01-29T14:44:55.740Z,14.67
2023-01-29T14:47:28.591Z,17.13
2023-01-29T14:49:58.544Z,18.03
2023-01-29T14:52:36.830Z,16.77
2023-01-29T14:55:08.078Z,17.03
2023-01-29T14:57:36.870Z,16.47
2023-01-29T15:00:07.692Z,16.77
2023-01-29T15:02:45.535Z,21.00
2023-01-29T15:05:19.565Z,18.50
2023-01-29T15:07:57.188Z,17.20
2023-01-29T15:10:29.194Z,13.37
2023-01-29T15:13:09.404Z,18.57
2023-01-29T15:15:57.360Z,18.13
2023-01-29T15:18:35.152Z,16.93
2023-01-29T15:21:05.804Z,17.70
2023-01-29T15:23:34.370Z,16.60
2023-01-29T15:26:05.095Z,16.67
2023-01-29T15:28:34.249Z,17.90
2023-01-29T15:31:09.971Z,17.83
2023-01-29T15:33:40.338Z,16.77
2023-01-29T15:36:08.803Z,15.60
2023-01-29T15:38:36.353Z,15.50
2023-01-29T15:41:19.308Z,15.33
2023-01-29T15:43:57.942Z,16.40
2023-01-29T15:46:28.413Z,18.23
2023-01-29T15:48:59.638Z,18.33
2023-01-29T15:51:28.048Z,15.07
2023-01-29T15:54:07.423Z,19.30
2023-01-29T15:56:44.598Z,14.40
2023-01-29T15:59:34.707Z,14.70
2023-01-29T16:02:26.634Z,18.77
2023-01-29T16:04:54.055Z,21.20
2023-01-29T16:07:21.067Z,17.77
2023-01-29T16:09:48.850Z,20.57
2023-01-29T16:12:15.958Z,15.73
2023-01-29T16:14:43.648Z,14.60
2023-01-29T16:17:22.638Z,17.03
2023-01-29T16:19:59.717Z,15.53
2023-01-29T16:22:31.383Z,15.40
2023-01-29T16:25:02.966Z,17.83
2023-01-29T16:27:31.987Z,18.00
2023-01-29T16:29:58.991Z,16.53
2023-01-29T16:32:25.776Z,17.70
2023-01-29T16:34:58.313Z,17.77
2023-01-29T16:37:30.022Z,16.90
2023-01-29T16:39:57.825Z,19.47
2023-01-29T16:42:28.466Z,17.37
2023-01-29T16:44:58.393Z,16.50
2023-01-29T16:47:39.254Z,13.70
2023-01-29T16:50:40.663Z,15.53
2023-01-29T16:53:23.314Z,16.93
2023-01-29T16:55:52.961Z,15.27
2023-01-29T16:58:23.078Z,13.80
2023-01-29T17:00:54.424Z,14.47
2023-01-29T17:03:21.741Z,14.33
2023-01-29T17:05:50.965Z,16.50
2023-01-29T17:08:38.322Z,13.90
2023-01-29T17:11:07.256Z,15.20
2023-01-29T17:13:43.817Z,13.60
2023-01-29T17:16:29.368Z,16.53
2023-01-29T17:19:35.758Z,14.33
2023-01-29T17:22:12.357Z,19.00
2023-01-29T17:24:43.883Z,16.70
2023-01-29T17:27:28.243Z,12.70
2023-01-29T17:29:55.366Z,15.77
2023-01-29T17:32:22.606Z,16.50
2023-01-29T17:34:51.029Z,16.07
2023-01-29T17:37:30.201Z,12.53
2023-01-29T17:40:18.364Z,16.47
2023-01-29T17:42:45.356Z,13.43
2023-01-29T17:45:13.117Z,16.13
2023-01-29T17:47:40.249Z,14.80
2023-01-29T17:50:21.397Z,14.33
2023-01-29T17:52:54.300Z,13.17
2023-01-29T17:55:21.230Z,14.87
2023-01-29T17:57:48.170Z,14.90
2023-01-29T18:00:27.467Z,15.60
2023-01-29T18:02:55.816Z,15.23
2023-01-29T18:05:42.671Z,15.00
2023-01-29T18:13:15.212Z,15.63
2023-01-29T18:21:52.629Z,14.73
2023-01-29T18:23:17.242Z,13.70
2023-01-29T18:25:45.301Z,17.23
2023-01-29T18:28:20.191Z,17.03
2023-01-29T18:30:47.937Z,18.80
2023-01-29T18:33:16.685Z,22.27
2023-01-29T18:35:47.848Z,19.67
2023-01-29T18:38:15.510Z,16.93
2023-01-29T18:40:44.589Z,16.47
2023-01-29T18:43:12.001Z,17.93
2023-01-29T18:45:39.331Z,17.70
2023-01-29T18:48:06.853Z,16.20
2023-01-29T18:50:34.541Z,15.67
2023-01-29T18:53:01.825Z,15.50
2023-01-29T18:55:29.008Z,17.67
2023-01-29T18:58:27.173Z,15.57
2023-01-29T19:00:45.291Z,13.27
2023-01-29T19:03:12.062Z,14.53
2023-01-29T19:05:39.132Z,18.93
2023-01-29T19:08:07.020Z,18.43
2023-01-29T19:10:34.537Z,15.20
2023-01-29T19:13:02.193Z,15.50
2023-01-29T19:15:29.987Z,20.13
2023-01-29T19:17:57.440Z,18.23
2023-01-29T19:20:25.311Z,16.90
2023-01-29T19:22:52.640Z,18.80
2023-01-29T19:25:20.051Z,18.37
2023-01-29T19:27:48.504Z,19.30
2023-01-29T19:30:17.521Z,16.77
2023-01-29T19:32:44.628Z,19.70
2023-01-29T19:35:12.003Z,18.27
2023-01-29T19:37:39.229Z,20.37
2023-01-29T19:40:08.346Z,21.67
2023-01-29T19:42:37.878Z,20.23
2023-01-29T19:45:06.164Z,18.73
2023-01-29T19:47:43.345Z,20.70
2023-01-29T19:50:12.633Z,22.83
2023-01-29T19:52:51.245Z,20.57
2023-01-29T19:55:21.415Z,18.17
2023-01-29T19:57:50.235Z,18.27
2023-01-29T20:00:18.995Z,18.67
2023-01-29T20:02:46.793Z,17.90
2023-01-29T20:05:18.500Z,19.00
2023-01-29T20:07:46.703Z,18.47
2023-01-29T20:10:17.663Z,18.43
2023-01-29T20:12:48.092Z,20.10
2023-01-29T20:15:16.423Z,27.00
2023-01-29T20:17:45.927Z,24.47
2023-01-29T20:20:14.114Z,23.80
2023-01-29T20:22:42.758Z,20.17
2023-01-29T20:25:13.681Z,19.97
2023-01-29T20:27:41.582Z,23.43
2023-01-29T20:30:10.181Z,23.67
2023-01-29T20:32:38.210Z,22.17
2023-01-29T20:35:05.850Z,22.50
2023-01-29T20:37:33.513Z,23.73
2023-01-29T20:40:00.644Z,23.30
2023-01-29T20:42:28.210Z,24.63
2023-01-29T20:44:55.786Z,32.27
2023-01-29T20:47:24.246Z,24.93
2023-01-29T20:49:51.897Z,26.30
2023-01-29T20:52:19.583Z,22.37
2023-01-29T20:54:46.727Z,22.83
2023-01-29T20:57:14.146Z,24.50
2023-01-29T20:59:41.389Z,21.60
2023-01-29T21:02:12.188Z,22.40
2023-01-29T21:04:39.999Z,21.93
2023-01-29T21:07:08.009Z,22.27
2023-01-29T21:09:35.286Z,19.13
2023-01-29T21:12:05.450Z,22.43
2023-01-29T21:14:32.905Z,19.40
2023-01-29T21:17:00.982Z,23.43
2023-01-29T21:19:29.224Z,26.83
2023-01-29T21:21:58.078Z,22.73
2023-01-29T21:24:25.413Z,23.60
2023-01-29T21:26:56.655Z,21.70
2023-01-29T21:29:23.842Z,25.43
2023-01-29T21:31:50.968Z,23.57
2023-01-29T21:34:17.860Z,24.83
2023-01-29T21:36:46.821Z,25.00
2023-01-29T21:39:26.698Z,25.83
2023-01-29T21:42:12.530Z,23.80
2023-01-29T21:44:39.468Z,25.90
2023-01-29T21:50:16.632Z,27.73
2023-01-29T21:52:43.700Z,23.00
2023-01-29T21:55:17.467Z,24.93
2023-01-29T22:01:53.407Z,20.17
2023-01-29T22:04:23.295Z,17.63
2023-01-29T22:07:12.195Z,28.83
2023-01-29T22:09:54.177Z,21.77
2023-01-29T22:12:24.716Z,22.10
2023-01-29T22:14:52.022Z,27.03
2023-01-29T22:17:49.969Z,27.00
2023-01-29T22:20:44.819Z,25.97
2023-01-29T22:23:12.804Z,24.37
2023-01-29T22:25:39.621Z,29.80
2023-01-29T22:28:07.508Z,25.43
2023-01-29T22:30:34.326Z,28.50
2023-01-29T22:33:02.077Z,26.37
2023-01-29T22:35:28.866Z,24.20
2023-01-29T22:37:55.612Z,26.67
2023-01-29T22:40:22.897Z,27.93
2023-01-29T22:42:49.735Z,25.27
2023-01-29T22:45:16.591Z,25.43
2023-01-29T22:47:43.514Z,22.73
2023-01-29T22:50:10.999Z,30.40
2023-01-29T22:52:43.000Z,24.13
2023-01-29T22:55:11.137Z,26.13
2023-01-29T22:57:38.997Z,25.57
2023-01-29T23:00:09.703Z,21.37
2023-01-29T23:02:37.368Z,23.27
2023-01-29T23:05:04.881Z,17.37
2023-01-29T23:07:31.640Z,17.63
2023-01-29T23:09:58.724Z,17.90
2023-01-29T23:12:25.424Z,21.87
2023-01-29T23:14:52.345Z,22.47
2023-01-29T23:17:19.301Z,23.23
2023-01-29T23:19:46.121Z,24.17
2023-01-29T23:22:13.497Z,24.43
2023-01-29T23:24:40.243Z,26.00
2023-01-29T23:27:25.182Z,23.90
2023-01-29T23:29:51.886Z,23.90
2023-01-29T23:32:20.282Z,24.30
2023-01-29T23:34:47.665Z,19.00
2023-01-29T23:37:14.547Z,14.10
2023-01-29T23:39:41.297Z,15.33
2023-01-29T23:42:08.339Z,11.87
2023-01-29T23:44:35.890Z,13.70
2023-01-29T23:47:02.969Z,12.23
2023-01-29T23:49:29.660Z,14.63
2023-01-29T23:51:56.357Z,21.07
2023-01-29T23:54:23.674Z,19.93
2023-01-29T23:56:50.419Z,19.70
2023-01-29T23:59:18.001Z,24.27
